Time;durP1;ratioP1;P1;durP2;ratioP2;P2;SDS_P1;SDS_P2;PMS_P1;PMS_P2;Temp;Humidity;BMP_temperature;BMP_pressure;BME280_temperature;BME280_humidity;BME280_pressure;Samples;Min_cycle;Max_cycle;Signal;HPM_P1;HPM_P2
2021/12/24 00:01:11;;;;;;;95.93;49.78;;;;;;;6.30;100.00;100514.19;5115430;28;20057;-35
2021/12/24 00:03:37;;;;;;;95.28;47.88;;;;;;;6.35;100.00;100518.91;5115574;28;20164;-35
2021/12/24 00:06:05;;;;;;;85.22;47.17;;;;;;;6.35;100.00;100517.06;5116067;28;20028;-35
2021/12/24 00:08:30;;;;;;;92.53;49.83;;;;;;;6.35;100.00;100514.38;5115215;28;20050;-35
2021/12/24 00:11:01;;;;;;;82.15;45.03;;;;;;;6.35;100.00;100506.31;5114814;28;20398;-35
2021/12/24 00:13:29;;;;;;;76.43;44.72;;;;;;;6.38;100.00;100505.88;5115310;28;20115;-35
2021/12/24 00:16:41;;;;;;;83.47;46.55;;;;;;;6.38;100.00;100500.50;5115412;28;20068;-35
2021/12/24 00:18:49;;;;;;;76.53;45.65;;;;;;;6.31;100.00;100497.03;5107062;28;20035;-35
2021/12/24 00:35:10;;;;;;;68.78;42.50;;;;;;;6.50;100.00;100505.25;5115250;28;20100;-36
2021/12/24 00:37:36;;;;;;;66.57;42.45;;;;;;;6.51;100.00;100498.81;5114858;28;20173;-36
2021/12/24 00:40:18;;;;;;;66.53;43.15;;;;;;;6.51;100.00;100496.13;5114911;28;20063;-36
2021/12/24 00:42:47;;;;;;;67.60;43.85;;;;;;;6.55;100.00;100489.31;5114519;28;20129;-36
2021/12/24 00:45:15;;;;;;;66.45;43.10;;;;;;;6.55;100.00;100492.00;5114489;28;20020;-36
2021/12/24 00:47:41;;;;;;;67.57;44.10;;;;;;;6.54;100.00;100487.63;5114405;28;20024;-36
2021/12/24 00:50:11;;;;;;;69.65;44.58;;;;;;;6.58;100.00;100491.53;5114756;28;20107;-36
2021/12/24 00:52:50;;;;;;;67.50;44.10;;;;;;;6.45;100.00;100465.59;5114834;28;20047;-36
2021/12/24 00:55:20;;;;;;;69.72;43.63;;;;;;;6.54;100.00;100474.19;5114328;28;20028;-36
2021/12/24 00:57:48;;;;;;;69.22;46.45;;;;;;;6.53;100.00;100464.50;5113990;28;20034;-36
2021/12/24 01:00:21;;;;;;;68.80;45.33;;;;;;;6.63;100.00;100481.81;5115026;28;20373;-37
2021/12/24 01:02:48;;;;;;;69.70;45.85;;;;;;;6.63;100.00;100475.59;5114386;28;20379;-36
2021/12/24 01:05:14;;;;;;;68.47;45.67;;;;;;;6.64;100.00;100480.78;5114179;28;20028;-36
2021/12/24 01:07:39;;;;;;;;;;;;;;;6.67;100.00;100479.53;5114252;28;20040;-36
2021/12/24 01:10:07;;;;;;;72.28;49.92;;;;;;;6.66;100.00;100476.00;5114171;28;19915;-36
2021/12/24 01:12:33;;;;;;;68.00;44.97;;;;;;;6.59;100.00;100460.97;5114513;28;20095;-36
2021/12/24 01:14:59;;;;;;;68.47;47.40;;;;;;;6.70;100.00;100476.41;5114257;28;20035;-36
2021/12/24 01:17:34;;;;;;;74.40;50.95;;;;;;;6.74;100.00;100460.69;5113940;28;20028;-36
2021/12/24 01:20:10;;;;;;;72.70;47.28;;;;;;;6.67;100.00;100456.16;5114093;28;20375;-36
2021/12/24 01:28:03;;;;;;;71.13;47.43;;;;;;;6.80;100.00;100462.50;5113495;28;20031;-36
2021/12/24 01:38:34;;;;;;;80.43;51.58;;;;;;;6.90;100.00;100468.25;5113931;28;20148;-36
2021/12/24 01:43:25;;;;;;;88.20;53.83;;;;;;;6.95;100.00;100466.56;5113598;28;20046;-36
2021/12/24 01:45:53;;;;;;;92.60;55.72;;;;;;;7.00;100.00;100471.28;5113613;28;20088;-36
2021/12/24 01:48:20;;;;;;;97.72;58.65;;;;;;;7.04;100.00;100477.06;5113588;28;20031;-36
2021/12/24 01:50:47;;;;;;;99.75;57.75;;;;;;;7.00;100.00;100465.09;5113656;28;20111;-36
2021/12/24 01:53:19;;;;;;;93.57;55.58;;;;;;;7.02;100.00;100469.19;5113270;28;20110;-36
2021/12/24 01:55:47;;;;;;;102.80;57.10;;;;;;;7.07;100.00;100472.03;5113834;28;20024;-36
2021/12/24 01:58:13;;;;;;;119.85;63.00;;;;;;;7.12;100.00;100466.84;5113449;28;20035;-36
2021/12/24 02:00:42;;;;;;;110.05;60.65;;;;;;;7.13;100.00;100476.59;5113349;28;20538;-36
2021/12/24 02:03:09;;;;;;;109.32;59.88;;;;;;;7.14;100.00;100472.03;5113606;28;20057;-36
2021/12/24 02:05:36;;;;;;;114.80;65.25;;;;;;;7.18;100.00;100465.19;5113374;28;20031;-36
2021/12/24 02:08:02;;;;;;;112.78;63.17;;;;;;;7.18;100.00;100465.19;5113853;28;20040;-36
2021/12/24 02:10:28;;;;;;;;;;;;;;;7.20;100.00;100460.38;5113831;28;20032;-36
2021/12/24 02:12:54;;;;;;;103.90;59.78;;;;;;;7.26;100.00;100469.44;5113675;28;19919;-36
2021/12/24 02:28:39;;;;;;;106.00;58.10;;;;;;;7.36;100.00;100465.22;5116968;28;20042;-36
2021/12/24 02:31:11;;;;;;;117.90;60.42;;;;;;;7.41;100.00;100465.38;5117725;28;20371;-36
2021/12/24 02:33:37;;;;;;;108.78;59.40;;;;;;;7.42;100.00;100464.38;5117062;28;20066;-36
2021/12/24 02:36:03;;;;;;;107.50;59.10;;;;;;;7.47;100.00;100461.84;5117070;28;20106;-36
2021/12/24 02:38:29;;;;;;;115.50;62.13;;;;;;;7.52;100.00;100461.19;5117464;28;20035;-36
2021/12/24 02:40:55;;;;;;;104.73;57.13;;;;;;;7.54;100.00;100466.34;5117370;28;20086;-36
2021/12/24 02:43:23;;;;;;;108.50;58.10;;;;;;;7.55;100.00;100462.59;5117027;28;20028;-36
2021/12/24 02:45:51;;;;;;;110.88;57.80;;;;;;;7.59;100.00;100453.03;5117097;28;20436;-36
2021/12/24 02:56:26;;;;;;;106.55;56.65;;;;;;;7.66;100.00;100451.09;5054061;28;20037;-36
2021/12/24 02:58:52;;;;;;;107.97;57.05;;;;;;;7.66;100.00;100443.88;5053854;28;20052;-36
2021/12/24 03:01:21;;;;;;;104.85;54.83;;;;;;;7.68;100.00;100452.53;5053783;28;20048;-36
2021/12/24 03:03:48;;;;;;;108.57;56.70;;;;;;;7.65;100.00;100434.13;5053507;28;20111;-36
2021/12/24 03:06:14;;;;;;;112.78;57.70;;;;;;;7.71;100.00;100443.19;5054095;28;20041;-36
2021/12/24 03:08:39;;;;;;;107.53;57.53;;;;;;;7.74;100.00;100438.19;5053733;28;20040;-36
2021/12/24 03:11:05;;;;;;;110.13;55.27;;;;;;;7.76;100.00;100440.69;5053333;28;20108;-36
2021/12/24 03:13:31;;;;;;;118.70;55.90;;;;;;;7.77;100.00;100436.94;5053684;28;20151;-36
2021/12/24 03:15:57;;;;;;;;;;;;;;;7.77;100.00;100444.19;5053860;28;20575;-36
2021/12/24 03:18:29;;;;;;;97.43;52.35;;;;;;;7.74;100.00;100445.44;5053272;28;19913;-36
2021/12/24 03:24:33;;;;;;;106.55;51.13;;;;;;;7.79;100.00;100445.59;5014032;28;20522;-36
2021/12/24 03:26:41;;;;;;;97.43;48.47;;;;;;;7.80;100.00;100441.84;5013327;28;20038;-36
2021/12/24 03:29:09;;;;;;;84.40;47.10;;;;;;;7.80;100.00;100430.25;5013364;28;20167;-36
2021/12/24 03:31:37;;;;;;;95.90;48.55;;;;;;;7.86;100.00;100449.06;5013412;28;20042;-36
2021/12/24 03:34:03;;;;;;;84.53;45.25;;;;;;;7.88;100.00;100449.66;5060835;28;20040;-36
2021/12/24 03:36:28;;;;;;;88.97;44.60;;;;;;;7.85;100.00;100435.81;5072828;28;20032;-36
2021/12/24 03:38:54;;;;;;;91.40;44.10;;;;;;;7.90;100.00;100449.41;5073443;28;20181;-36
2021/12/24 03:41:20;;;;;;;79.97;42.78;;;;;;;7.89;100.00;100453.16;5073181;28;20072;-36
2021/12/24 03:43:46;;;;;;;84.35;42.72;;;;;;;7.91;100.00;100451.09;5072748;28;20059;-36
2021/12/24 03:46:15;;;;;;;76.03;41.95;;;;;;;7.89;100.00;100448.59;5072731;28;20120;-36
2021/12/24 03:56:32;;;;;;;71.43;36.92;;;;;;;7.95;100.00;100463.03;5073095;28;20032;-36
2021/12/24 03:58:58;;;;;;;62.20;34.55;;;;;;;7.96;100.00;100449.38;5072995;28;20028;-36
2021/12/24 04:01:24;;;;;;;57.05;34.03;;;;;;;7.96;100.00;100457.44;5105689;28;20040;-36
2021/12/24 04:03:49;;;;;;;51.92;31.65;;;;;;;7.97;100.00;100459.09;5115300;28;20031;-36
2021/12/24 04:06:14;;;;;;;52.30;31.95;;;;;;;7.97;100.00;100458.25;5115314;28;20047;-36
2021/12/24 04:08:40;;;;;;;53.60;29.83;;;;;;;7.96;100.00;100457.44;5115939;28;20050;-36
2021/12/24 04:11:06;;;;;;;51.07;29.57;;;;;;;7.97;100.00;100445.63;5115274;28;20032;-36
2021/12/24 04:13:33;;;;;;;50.80;29.00;;;;;;;7.95;100.00;100445.03;5115741;28;20468;-36
2021/12/24 04:15:58;;;;;;;44.03;27.05;;;;;;;7.95;100.00;100452.25;5115115;28;20023;-36
2021/12/24 04:26:30;;;;;;;46.65;26.73;;;;;;;7.94;100.00;100461.41;5052112;28;20044;-36
2021/12/24 04:28:56;;;;;;;53.17;27.40;;;;;;;7.86;100.00;100449.06;5051764;28;20040;-36
2021/12/24 04:31:28;;;;;;;44.03;24.92;;;;;;;7.95;100.00;100471.09;5051786;28;20259;-36
2021/12/24 04:33:58;;;;;;;43.67;24.23;;;;;;;7.95;100.00;100463.88;5051884;28;20032;-36
2021/12/24 05:03:31;;;;;;;33.55;17.95;;;;;;;7.95;100.00;100445.03;5092092;28;20114;-36
2021/12/24 05:06:12;;;;;;;34.33;17.20;;;;;;;7.98;100.00;100462.59;5092156;28;20032;-36
2021/12/24 05:08:56;;;;;;;31.50;16.05;;;;;;;7.93;100.00;100447.09;5091483;28;20048;-36
2021/12/24 05:11:23;;;;;;;32.53;15.55;;;;;;;7.96;100.00;100462.84;5091305;28;20055;-36
2021/12/24 05:13:49;;;;;;;32.90;15.98;;;;;;;7.97;100.00;100461.78;5091164;28;20073;-36
2021/12/24 05:16:26;;;;;;;28.00;13.75;;;;;;;7.97;100.00;100461.78;5111208;28;20514;-36
2021/12/24 05:21:33;;;;;;;30.75;14.88;;;;;;;7.95;100.00;100463.88;5114117;28;20035;-36
2021/12/24 05:21:51;;;;;;;25.77;13.38;;;;;;;7.96;100.00;100460.13;5113587;28;20038;-36
2021/12/24 05:24:20;;;;;;;29.90;13.77;;;;;;;7.92;100.00;100453.53;5114233;28;20055;-36
2021/12/24 05:26:48;;;;;;;32.40;13.98;;;;;;;7.93;100.00;100459.75;5113748;28;20031;-36
2021/12/24 05:29:15;;;;;;;30.05;13.65;;;;;;;7.92;100.00;100456.25;5113872;28;20360;-36
2021/12/24 05:31:41;;;;;;;29.77;13.85;;;;;;;7.91;100.00;100457.28;5113975;28;20032;-36
2021/12/24 05:34:06;;;;;;;31.58;13.88;;;;;;;7.92;100.00;100464.31;5113528;28;20035;-36
2021/12/24 05:36:32;;;;;;;31.27;13.40;;;;;;;7.91;100.00;100464.56;5113627;28;20395;-36
2021/12/24 05:38:57;;;;;;;25.33;13.10;;;;;;;7.86;100.00;100456.31;5114235;28;20254;-36
2021/12/24 05:41:23;;;;;;;27.87;13.30;;;;;;;7.89;100.00;100470.13;5113589;28;20023;-36
2021/12/24 05:43:49;;;;;;;;;;;;;;;7.92;100.00;100474.25;5113948;28;20035;-36
2021/12/24 05:46:14;;;;;;;31.55;14.20;;;;;;;7.88;100.00;100479.25;5113201;28;20300;-36
2021/12/24 05:48:40;;;;;;;28.95;13.93;;;;;;;7.77;100.00;100466.53;5113456;28;20035;-35
2021/12/24 05:51:06;;;;;;;26.17;12.80;;;;;;;7.85;100.00;100479.69;5113522;28;20024;-36
2021/12/24 05:53:31;;;;;;;31.05;14.60;;;;;;;7.80;100.00;100471.47;5113415;28;20601;-36
2021/12/24 05:55:57;;;;;;;27.80;13.47;;;;;;;7.80;100.00;100465.25;5116716;28;20034;-36
2021/12/24 05:58:23;;;;;;;28.75;12.98;;;;;;;7.86;100.00;100483.25;5117509;27;20030;-36
2021/12/24 06:00:48;;;;;;;29.13;13.30;;;;;;;7.86;100.00;100478.69;5117329;28;20043;-36
2021/12/24 06:03:14;;;;;;;27.57;12.67;;;;;;;7.83;100.00;100481.78;5117911;28;20036;-36
2021/12/24 06:05:41;;;;;;;29.80;12.88;;;;;;;7.85;100.00;100481.56;5118364;28;20027;-36
2021/12/24 06:08:07;;;;;;;22.00;12.98;;;;;;;7.69;100.00;100466.81;5117148;28;20044;-36
2021/12/24 06:10:33;;;;;;;29.08;13.02;;;;;;;7.82;100.00;100488.22;5117835;28;20061;-36
2021/12/24 06:12:59;;;;;;;36.35;13.40;;;;;;;7.77;100.00;100482.69;5117457;28;20039;-36
2021/12/24 06:15:26;;;;;;;27.95;13.63;;;;;;;7.83;100.00;100503.34;5117701;28;20019;-36
2021/12/24 06:17:58;;;;;;;27.35;13.18;;;;;;;7.72;100.00;100479.84;5118110;28;20089;-36
2021/12/24 06:20:25;;;;;;;27.83;14.25;;;;;;;7.79;100.00;100491.34;5117664;28;20030;-36
2021/12/24 06:22:51;;;;;;;23.77;12.85;;;;;;;7.80;100.00;100493.00;5117520;28;20055;-35
2021/12/24 06:25:18;;;;;;;27.73;13.07;;;;;;;7.71;100.00;100484.41;5117687;28;20107;-36
2021/12/24 06:27:44;;;;;;;24.35;12.40;;;;;;;7.70;100.00;100481.91;5117176;28;20028;-35
2021/12/24 06:30:11;;;;;;;30.60;13.32;;;;;;;7.77;100.00;100493.47;5116804;28;20042;-35
2021/12/24 06:32:37;;;;;;;26.02;13.32;;;;;;;7.57;100.00;100464.03;5116993;28;20023;-35
2021/12/24 06:35:03;;;;;;;28.73;13.65;;;;;;;7.77;100.00;100496.16;5117417;28;20027;-35
2021/12/24 06:37:29;;;;;;;31.40;13.35;;;;;;;7.77;100.00;100498.03;5117409;28;20031;-35
2021/12/24 06:39:55;;;;;;;25.03;13.27;;;;;;;7.77;100.00;100493.47;5116809;28;20032;-35
2021/12/24 06:42:20;;;;;;;24.90;12.73;;;;;;;7.75;100.00;100498.22;5115408;28;20032;-35
2021/12/24 06:44:46;;;;;;;30.73;13.55;;;;;;;7.77;100.00;100490.75;5117288;28;20036;-35
2021/12/24 06:47:11;;;;;;;34.40;13.40;;;;;;;7.77;100.00;100488.06;5116495;28;20031;-35
2021/12/24 06:49:36;;;;;;;26.93;12.97;;;;;;;7.76;100.00;100497.19;5117502;28;20027;-35
2021/12/24 06:52:03;;;;;;;30.43;14.10;;;;;;;7.75;100.00;100495.53;5116770;28;20024;-36
2021/12/24 06:54:30;;;;;;;26.98;13.30;;;;;;;7.60;100.00;100468.97;5116849;28;20019;-35
2021/12/24 06:56:55;;;;;;;26.35;12.82;;;;;;;7.66;100.00;100480.69;5117068;27;20039;-36
2021/12/24 06:59:21;;;;;;;27.10;13.02;;;;;;;7.74;100.00;100489.31;5116890;28;20460;-35
2021/12/24 07:01:46;;;;;;;28.70;13.77;;;;;;;7.74;100.00;100485.81;5116820;28;20103;-35
2021/12/24 07:04:11;;;;;;;27.90;13.73;;;;;;;7.74;100.00;100497.41;5116144;28;20027;-35
2021/12/24 07:06:43;;;;;;;28.97;13.53;;;;;;;7.66;100.00;100472.63;5115740;28;20035;-35
2021/12/24 07:09:08;;;;;;;26.88;13.50;;;;;;;7.73;100.00;100486.88;5116779;28;20099;-36
2021/12/24 07:11:34;;;;;;;32.27;14.20;;;;;;;7.73;100.00;100485.00;5116099;28;20429;-35
2021/12/24 07:13:59;;;;;;;28.23;12.47;;;;;;;7.73;100.00;100476.09;5116637;28;20257;-35
2021/12/24 07:16:24;;;;;;;25.07;13.03;;;;;;;7.72;100.00;100467.19;5116054;28;20032;-36
2021/12/24 07:18:50;;;;;;;26.03;12.57;;;;;;;7.73;100.00;100476.91;5116698;28;20160;-35
2021/12/24 07:21:15;;;;;;;27.13;12.47;;;;;;;7.73;100.00;100484.19;5116359;28;20034;-35
2021/12/24 07:23:41;;;;;;;24.00;12.60;;;;;;;7.70;100.00;100476.53;5115879;28;20077;-35
2021/12/24 07:26:06;;;;;;;34.07;13.80;;;;;;;7.73;100.00;100492.25;5115861;28;20270;-35
2021/12/24 07:28:31;;;;;;;22.60;12.03;;;;;;;7.74;100.00;100499.28;5116548;27;20024;-36
2021/12/24 07:30:57;;;;;;;22.57;12.07;;;;;;;7.73;100.00;100503.00;5114998;28;20040;-35
2021/12/24 07:33:22;;;;;;;25.50;12.47;;;;;;;7.74;100.00;100505.47;5116023;28;20031;-35
2021/12/24 07:35:48;;;;;;;28.10;12.43;;;;;;;7.74;100.00;100504.66;5115924;28;20375;-36
2021/12/24 07:38:13;;;;;;;27.63;13.30;;;;;;;7.72;100.00;100496.00;5115487;28;20023;-35
2021/12/24 07:40:41;;;;;;;28.73;12.82;;;;;;;7.73;100.00;100500.31;5116032;28;20261;-35
2021/12/24 07:43:06;;;;;;;25.98;12.68;;;;;;;7.72;100.00;100496.00;5115371;28;20042;-36
2021/12/24 07:45:32;;;;;;;26.58;13.05;;;;;;;7.73;100.00;100498.44;5115493;28;20023;-36
2021/12/24 07:53:08;;;;;;;30.00;13.18;;;;;;;7.74;100.00;100496.59;5115753;28;20085;-36
2021/12/24 07:55:34;;;;;;;32.67;13.65;;;;;;;7.74;100.00;100497.41;5115322;28;20047;-35
2021/12/24 07:58:00;;;;;;;29.17;12.80;;;;;;;7.73;100.00;100503.84;5115556;28;20067;-35
2021/12/24 08:00:27;;;;;;;30.63;12.83;;;;;;;7.74;100.00;100504.66;5115254;28;20028;-36
2021/12/24 08:02:56;;;;;;;25.48;12.90;;;;;;;7.72;100.00;100494.13;5115493;28;20725;-36
2021/12/24 08:05:24;;;;;;;25.00;11.95;;;;;;;7.68;100.00;100500.16;5115463;28;20024;-36
2021/12/24 08:07:50;;;;;;;29.75;12.10;;;;;;;7.73;100.00;100500.31;5115462;28;20103;-35
2021/12/24 08:10:16;;;;;;;27.05;12.48;;;;;;;7.73;100.00;100503.84;5115928;28;20419;-35
2021/12/24 08:12:41;;;;;;;25.87;12.27;;;;;;;7.76;100.00;100502.59;5115333;28;20111;-36
2021/12/24 08:15:07;;;;;;;25.57;11.17;;;;;;;7.74;100.00;100505.47;5115358;28;20270;-35
2021/12/24 08:17:33;;;;;;;29.52;12.20;;;;;;;7.74;100.00;100501.97;5114800;28;20024;-35
2021/12/24 08:19:59;;;;;;;36.33;13.48;;;;;;;7.75;100.00;100504.44;5115214;28;20426;-35
2021/12/24 08:22:25;;;;;;;30.50;12.23;;;;;;;7.62;100.00;100471.44;5115210;28;20062;-35
2021/12/24 08:24:50;;;;;;;25.27;13.35;;;;;;;7.69;100.00;100485.66;5115353;28;20027;-35
2021/12/24 08:27:16;;;;;;;33.83;13.13;;;;;;;7.70;100.00;100481.91;5114754;28;20027;-35
2021/12/24 08:29:42;;;;;;;26.88;12.90;;;;;;;7.79;100.00;100487.84;5114135;28;20019;-35
2021/12/24 08:32:07;;;;;;;;;;;;;;;7.81;100.00;100483.06;5115698;28;20059;-35
2021/12/24 08:34:33;;;;;;;30.85;12.15;;;;;;;7.80;100.00;100492.19;5114951;28;20374;-35
2021/12/24 08:36:59;;;;;;;27.55;12.75;;;;;;;7.74;100.00;100480.44;5114906;28;20099;-35
2021/12/24 08:39:25;;;;;;;29.65;12.30;;;;;;;7.78;100.00;100495.09;5115112;28;20028;-35
2021/12/24 08:41:54;;;;;;;35.10;12.40;;;;;;;7.71;100.00;100481.72;5114701;28;20035;-35
2021/12/24 08:44:21;;;;;;;29.35;11.95;;;;;;;7.80;100.00;100502.94;5115176;28;20024;-35
2021/12/24 08:46:47;;;;;;;27.17;11.25;;;;;;;7.74;100.00;100488.50;5114578;28;20027;-35
2021/12/24 08:49:12;;;;;;;25.08;11.05;;;;;;;7.74;100.00;100483.13;5114677;28;20364;-35
2021/12/24 08:51:38;;;;;;;24.27;10.63;;;;;;;7.74;100.00;100472.34;5115119;28;20027;-35
2021/12/24 08:54:03;;;;;;;31.70;12.13;;;;;;;7.75;100.00;100476.69;5114982;28;20031;-35
2021/12/24 08:56:28;;;;;;;25.50;11.27;;;;;;;7.83;100.00;100487.19;5114529;28;20030;-35
2021/12/24 08:58:54;;;;;;;24.30;11.80;;;;;;;7.77;100.00;100471.94;5115060;28;20047;-35
2021/12/24 09:01:19;;;;;;;27.63;12.30;;;;;;;7.84;100.00;100480.75;5114545;28;20474;-35
2021/12/24 09:03:44;;;;;;;27.90;12.23;;;;;;;7.87;100.00;100479.50;5114084;28;20023;-35
2021/12/24 09:06:10;;;;;;;25.93;12.07;;;;;;;7.87;100.00;100483.00;5114449;28;20039;-35
2021/12/24 09:08:36;;;;;;;26.25;11.98;;;;;;;7.80;100.00;100462.56;5114557;28;20139;-35
2021/12/24 09:11:03;;;;;;;30.73;13.27;;;;;;;7.90;100.00;100490.63;5114314;28;20036;-35
2021/12/24 09:13:29;;;;;;;29.95;13.27;;;;;;;7.91;100.00;100484.22;5113983;28;20494;-35
2021/12/24 09:15:55;;;;;;;28.02;12.30;;;;;;;7.92;100.00;100488.56;5114163;28;20019;-35
2021/12/24 09:18:20;;;;;;;25.90;12.75;;;;;;;7.93;100.00;100486.69;5114113;28;20028;-35
2021/12/24 09:20:47;;;;;;;26.53;12.60;;;;;;;7.94;100.00;100477.53;5114322;28;20053;-35
2021/12/24 09:23:12;;;;;;;26.13;12.45;;;;;;;7.94;100.00;100477.53;5113630;28;20081;-35
2021/12/24 09:25:40;;;;;;;28.33;13.23;;;;;;;7.89;100.00;100472.81;5114340;28;20036;-35
2021/12/24 09:28:06;;;;;;;29.05;12.70;;;;;;;7.94;100.00;100485.63;5113627;28;20122;-35
2021/12/24 09:30:32;;;;;;;33.90;14.23;;;;;;;7.94;100.00;100499.91;5114253;28;20031;-35
2021/12/24 09:32:58;;;;;;;34.83;13.00;;;;;;;7.88;100.00;100471.19;5113777;28;20064;-35
2021/12/24 09:35:25;;;;;;;24.80;13.00;;;;;;;7.94;100.00;100483.75;5114213;28;20119;-35
2021/12/24 09:37:50;;;;;;;25.85;12.30;;;;;;;7.95;100.00;100479.19;5113727;28;20273;-35
2021/12/24 09:40:19;;;;;;;28.00;13.70;;;;;;;7.89;100.00;100469.31;5113564;28;20088;-35
2021/12/24 09:42:45;;;;;;;25.00;12.25;;;;;;;7.95;100.00;100480.03;5113510;28;20031;-35
2021/12/24 09:45:11;;;;;;;;;;;;;;;8.00;100.00;100488.28;5114384;28;20361;-35
2021/12/24 09:47:36;;;;;;;23.70;11.73;;;;;;;7.90;100.00;100471.78;5113902;28;19937;-35
2021/12/24 09:50:04;;;;;;;25.27;11.65;;;;;;;7.99;100.00;100488.47;5113489;28;20031;-36
2021/12/24 09:52:31;;;;;;;28.25;10.70;;;;;;;7.97;100.00;100483.31;5113617;28;20024;-35
2021/12/24 09:54:57;;;;;;;22.40;11.68;;;;;;;7.99;100.00;100475.81;5113847;28;20035;-35
2021/12/24 09:57:22;;;;;;;26.87;11.10;;;;;;;7.80;100.00;100444.53;5113603;28;20503;-35
2021/12/24 09:59:48;;;;;;;28.37;11.37;;;;;;;8.02;100.00;100473.75;5113426;28;20035;-35
2021/12/24 10:02:18;;;;;;;32.43;11.67;;;;;;;8.03;100.00;100475.41;5113204;28;20464;-35
2021/12/24 10:04:45;;;;;;;22.98;10.68;;;;;;;8.01;100.00;100475.63;5113677;28;20055;-36
2021/12/24 10:07:14;;;;;;;25.42;10.65;;;;;;;8.03;100.00;100470.00;5113717;28;20027;-35
2021/12/24 10:09:46;;;;;;;30.40;10.57;;;;;;;7.95;100.00;100463.88;5113736;28;20345;-35
2021/12/24 10:12:14;;;;;;;25.23;10.75;;;;;;;7.96;100.00;100462.84;5096287;28;20058;-35
2021/12/24 10:14:46;;;;;;;22.65;11.25;;;;;;;8.02;100.00;100471.06;5093243;28;20430;-35
2021/12/24 10:17:21;;;;;;;29.95;11.82;;;;;;;8.04;100.00;100479.72;5092498;28;20020;-35
2021/12/24 10:19:53;;;;;;;25.85;11.80;;;;;;;7.90;100.00;100452.94;5092706;28;20538;-35
2021/12/24 10:22:19;;;;;;;28.67;11.50;;;;;;;8.01;100.00;100462.16;5092833;28;20102;-35
2021/12/24 10:25:07;;;;;;;24.20;11.63;;;;;;;8.10;100.00;100474.28;5093411;28;20111;-35
2021/12/24 10:27:34;;;;;;;30.13;12.10;;;;;;;7.97;100.00;100445.63;5092878;28;20035;-35
2021/12/24 10:30:13;;;;;;;28.83;12.50;;;;;;;8.14;100.00;100463.88;5092267;28;20031;-35
2021/12/24 10:32:39;;;;;;;23.52;12.07;;;;;;;7.99;100.00;100435.44;5093351;28;20024;-35
2021/12/24 10:35:38;;;;;;;26.67;12.73;;;;;;;8.26;100.00;100471.00;5093047;28;20032;-35
2021/12/24 10:38:10;;;;;;;30.05;12.18;;;;;;;8.25;100.00;100458.56;5093037;28;20028;-36
2021/12/24 10:40:36;;;;;;;31.30;13.63;;;;;;;8.28;100.00;100454.59;5094057;28;20059;-35
2021/12/24 10:43:01;;;;;;;26.85;12.90;;;;;;;8.32;100.00;100463.88;5096333;28;20429;-36
2021/12/24 10:45:27;;;;;;;30.43;13.33;;;;;;;8.33;100.00;100465.53;5096219;28;20111;-35
2021/12/24 10:47:52;;;;;;;32.27;13.23;;;;;;;8.34;100.00;100464.47;5096503;28;20103;-35
2021/12/24 10:55:30;;;;;;;29.52;12.75;;;;;;;8.34;100.00;100461.78;5096621;28;20475;-35
2021/12/24 10:57:57;;;;;;;24.92;12.60;;;;;;;8.34;100.00;100453.69;5096292;28;20428;-35
2021/12/24 11:00:38;;;;;;;26.90;12.23;;;;;;;8.26;100.00;100448.63;5094793;28;20044;-35
2021/12/24 11:03:15;;;;;;;29.52;13.50;;;;;;;8.31;100.00;100458.72;5096213;28;20101;-35
2021/12/24 11:05:46;;;;;;;27.30;12.70;;;;;;;8.30;100.00;100465.16;5096391;28;20448;-36
2021/12/24 11:08:23;;;;;;;27.65;12.70;;;;;;;8.29;100.00;100464.31;5096082;28;20028;-36
2021/12/24 11:10:52;;;;;;;31.13;13.40;;;;;;;8.29;100.00;100464.31;5097186;28;20040;-36
2021/12/24 11:13:29;;;;;;;35.85;12.70;;;;;;;8.28;100.00;100462.69;5096695;28;20310;-36
2021/12/24 11:15:54;;;;;;;;;;;;;;;8.31;100.00;100459.53;5096802;28;20468;-36
2021/12/24 11:18:31;;;;;;;24.65;14.00;;;;;;;8.27;100.00;100463.72;5095846;28;19954;-36
2021/12/24 11:21:04;;;;;;;30.00;12.35;;;;;;;8.30;100.00;100462.47;5095845;28;20039;-36
2021/12/24 11:23:32;;;;;;;29.00;12.93;;;;;;;8.29;100.00;100469.69;5095955;28;20359;-35
2021/12/24 11:26:03;;;;;;;32.78;13.70;;;;;;;8.30;100.00;100465.16;5095722;28;20090;-35
2021/12/24 11:28:30;;;;;;;37.50;14.88;;;;;;;8.27;100.00;100456.47;5096129;28;20028;-36
2021/12/24 11:30:56;;;;;;;;;;;;;;;8.33;100.00;100454.75;5096152;28;20055;-35
2021/12/24 11:33:24;;;;;;;25.98;13.38;;;;;;;8.22;100.00;100442.84;5095624;28;19908;-36
2021/12/24 11:35:51;;;;;;;32.05;14.05;;;;;;;8.31;100.00;100459.53;5095940;28;20039;-35
2021/12/24 11:38:20;;;;;;;28.50;13.40;;;;;;;8.26;100.00;100451.31;5095415;28;20027;-35
2021/12/24 11:40:47;;;;;;;29.00;13.07;;;;;;;8.36;100.00;100465.09;5095676;28;20035;-34
2021/12/24 11:43:13;;;;;;;30.08;13.40;;;;;;;8.38;100.00;100464.88;5095014;28;20491;-35
2021/12/24 11:45:39;;;;;;;29.63;12.95;;;;;;;8.40;100.00;100466.31;5095825;28;20028;-35
2021/12/24 11:48:05;;;;;;;29.17;13.77;;;;;;;8.43;100.00;100456.94;5095486;28;20359;-34
2021/12/24 11:50:32;;;;;;;28.48;14.05;;;;;;;8.44;100.00;100456.72;5095555;28;20017;-35
2021/12/24 11:53:02;;;;;;;31.80;14.13;;;;;;;8.38;100.00;100438.75;5093797;28;20432;-34
2021/12/24 11:55:33;;;;;;;35.20;14.07;;;;;;;8.50;100.00;100445.03;5094883;28;20028;-34
2021/12/24 11:58:09;;;;;;;34.08;14.55;;;;;;;8.45;100.00;100442.19;5095292;28;20043;-34
2021/12/24 12:00:45;;;;;;;29.92;13.38;;;;;;;8.53;100.00;100449.13;5095402;28;20028;-35
2021/12/24 12:03:31;;;;;;;31.30;14.18;;;;;;;8.46;100.00;100433.06;5094986;28;20024;-34
2021/12/24 12:05:56;;;;;;;34.13;14.52;;;;;;;8.55;100.00;100440.84;5094860;28;20097;-35
2021/12/24 12:08:25;;;;;;;28.83;14.13;;;;;;;8.49;100.00;100432.63;5095007;28;20108;-35
2021/12/24 12:11:00;;;;;;;32.95;15.30;;;;;;;8.60;100.00;100449.06;5095664;28;20089;-34
2021/12/24 12:13:36;;;;;;;31.08;13.82;;;;;;;8.60;100.00;100436.41;5094736;28;20035;-35
2021/12/24 12:16:02;;;;;;;28.67;14.18;;;;;;;8.61;100.00;100440.75;5094771;28;20031;-34
2021/12/24 12:18:30;;;;;;;27.98;14.40;;;;;;;8.63;100.00;100437.81;5094912;28;20376;-34
2021/12/24 12:21:42;;;;;;;30.15;13.55;;;;;;;8.66;100.00;100427.41;5094819;28;20024;-34
2021/12/24 12:26:46;;;;;;;32.88;14.80;;;;;;;8.65;100.00;100425.75;5012414;28;20037;-35
2021/12/24 12:29:32;;;;;;;34.00;15.88;;;;;;;8.67;100.00;100428.22;5012104;28;20022;-35
2021/12/24 12:32:25;;;;;;;34.75;14.35;;;;;;;8.67;100.00;100431.75;5012721;28;20124;-35
2021/12/24 12:34:59;;;;;;;34.08;15.43;;;;;;;8.65;100.00;100428.47;5012358;28;20049;-35
2021/12/24 12:37:24;;;;;;;29.10;15.02;;;;;;;8.66;100.00;100438.19;5012036;28;20087;-35
2021/12/24 12:40:16;;;;;;;33.17;14.47;;;;;;;8.69;100.00;100439.63;5012702;28;20076;-35
2021/12/24 12:45:19;;;;;;;34.90;15.68;;;;;;;8.51;100.00;100400.88;4992316;28;20058;-35
2021/12/24 12:47:57;;;;;;;37.75;14.75;;;;;;;8.70;100.00;100431.28;4992252;28;20498;-35
2021/12/24 12:50:24;;;;;;;32.10;15.50;;;;;;;8.70;100.00;100443.94;4992585;28;20544;-35
2021/12/24 12:52:53;;;;;;;30.25;15.23;;;;;;;8.69;100.00;100437.75;4991975;28;20114;-35
2021/12/24 12:55:33;;;;;;;27.23;14.43;;;;;;;8.66;100.00;100424.72;4992344;28;20045;-36
2021/12/24 12:58:24;;;;;;;34.80;13.98;;;;;;;8.71;100.00;100430.25;5033859;28;20119;-36
2021/12/24 13:01:09;;;;;;;29.75;14.25;;;;;;;8.63;100.00;100419.75;5071711;28;20520;-36
2021/12/24 13:03:57;;;;;;;26.52;12.98;;;;;;;8.70;100.00;100425.91;5070731;28;20110;-36
2021/12/24 13:06:46;;;;;;;31.80;13.38;;;;;;;8.70;100.00;100433.16;5071313;28;20059;-35
2021/12/24 13:09:16;;;;;;;25.52;12.90;;;;;;;8.61;100.00;100421.06;5071768;28;20411;-36
2021/12/24 13:11:44;;;;;;;30.98;14.05;;;;;;;8.65;100.00;100424.94;5071059;28;20043;-36